sensor_id;sensor_type;location;lat;lon;timestamp;temperature;humidity
80290;SHT30;69592;44.804;-0.550;2023-08-30T04:17:12;16.77;83.21
80290;SHT30;69592;44.804;-0.550;2023-08-30T04:19:41;16.68;83.23
80290;SHT30;69592;44.804;-0.550;2023-08-30T04:22:10;16.59;83.25
80290;SHT30;69592;44.804;-0.550;2023-08-30T04:24:42;16.58;83.80
80290;SHT30;69592;44.804;-0.550;2023-08-30T04:27:11;16.56;83.36
80290;SHT30;69592;44.804;-0.550;2023-08-30T04:29:44;16.70;83.32
80290;SHT30;69592;44.804;-0.550;2023-08-30T04:32:25;16.68;82.99
80290;SHT30;69592;44.804;-0.550;2023-08-30T04:35:17;16.69;83.80
80290;SHT30;69592;44.804;-0.550;2023-08-30T04:37:46;16.70;83.30
80290;SHT30;69592;44.804;-0.550;2023-08-30T04:40:30;16.72;83.42
80290;SHT30;69592;44.804;-0.550;2023-08-30T04:46:59;16.73;83.22
80290;SHT30;69592;44.804;-0.550;2023-08-30T04:53:25;16.75;83.27
80290;SHT30;69592;44.804;-0.550;2023-08-30T05:46:31;17.45;83.66
80290;SHT30;69592;44.804;-0.550;2023-08-30T06:24:16;17.96;81.70
80290;SHT30;69592;44.804;-0.550;2023-08-30T06:26:52;17.88;81.54
80290;SHT30;69592;44.804;-0.550;2023-08-30T06:29:21;18.01;80.83
80290;SHT30;69592;44.804;-0.550;2023-08-30T06:31:49;17.98;80.78
80290;SHT30;69592;44.804;-0.550;2023-08-30T06:34:20;17.99;81.10
80290;SHT30;69592;44.804;-0.550;2023-08-30T06:40:04;18.01;80.71
80290;SHT30;69592;44.804;-0.550;2023-08-30T06:42:33;18.02;80.61
80290;SHT30;69592;44.804;-0.550;2023-08-30T06:45:01;18.13;80.50
80290;SHT30;69592;44.804;-0.550;2023-08-30T06:47:27;18.22;80.22
80290;SHT30;69592;44.804;-0.550;2023-08-30T06:49:52;18.21;79.95
80290;SHT30;69592;44.804;-0.550;2023-08-30T06:52:19;18.23;80.04
80290;SHT30;69592;44.804;-0.550;2023-08-30T06:54:45;18.26;79.91
80290;SHT30;69592;44.804;-0.550;2023-08-30T06:57:12;18.37;79.80
80290;SHT30;69592;44.804;-0.550;2023-08-30T06:59:41;18.46;79.69
80290;SHT30;69592;44.804;-0.550;2023-08-30T07:02:07;18.45;79.28
80290;SHT30;69592;44.804;-0.550;2023-08-30T07:04:33;18.47;80.09
80290;SHT30;69592;44.804;-0.550;2023-08-30T07:06:58;18.45;79.75
80290;SHT30;69592;44.804;-0.550;2023-08-30T07:09:24;18.57;79.98
80290;SHT30;69592;44.804;-0.550;2023-08-30T07:12:21;18.64;79.80
80290;SHT30;69592;44.804;-0.550;2023-08-30T07:14:47;18.63;79.85
80290;SHT30;69592;44.804;-0.550;2023-08-30T07:17:12;18.53;80.36
80290;SHT30;69592;44.804;-0.550;2023-08-30T07:19:40;18.49;80.59
80290;SHT30;69592;44.804;-0.550;2023-08-30T07:22:09;18.43;80.93
80290;SHT30;69592;44.804;-0.550;2023-08-30T07:24:39;18.55;80.82
80290;SHT30;69592;44.804;-0.550;2023-08-30T07:27:32;18.61;80.49
80290;SHT30;69592;44.804;-0.550;2023-08-30T07:30:18;18.73;80.88
80290;SHT30;69592;44.804;-0.550;2023-08-30T07:33:04;18.84;80.61
80290;SHT30;69592;44.804;-0.550;2023-08-30T07:46:19;19.41;80.04
80290;SHT30;69592;44.804;-0.550;2023-08-30T07:48:44;19.44;79.93
80290;SHT30;69592;44.804;-0.550;2023-08-30T07:51:10;19.54;79.61
80290;SHT30;69592;44.804;-0.550;2023-08-30T07:53:37;19.49;79.55
80290;SHT30;69592;44.804;-0.550;2023-08-30T07:56:03;19.61;79.73
80290;SHT30;69592;44.804;-0.550;2023-08-30T07:58:28;19.75;79.21
80290;SHT30;69592;44.804;-0.550;2023-08-30T08:00:54;19.80;79.09
80290;SHT30;69592;44.804;-0.550;2023-08-30T08:03:22;19.96;78.48
80290;SHT30;69592;44.804;-0.550;2023-08-30T08:05:57;20.10;77.70
80290;SHT30;69592;44.804;-0.550;2023-08-30T08:08:26;20.17;76.58
80290;SHT30;69592;44.804;-0.550;2023-08-30T08:10:51;20.20;76.16
80290;SHT30;69592;44.804;-0.550;2023-08-30T08:13:17;20.39;76.22
80290;SHT30;69592;44.804;-0.550;2023-08-30T08:15:42;20.36;76.06
80290;SHT30;69592;44.804;-0.550;2023-08-30T08:18:09;20.48;75.66
80290;SHT30;69592;44.804;-0.550;2023-08-30T08:20:34;20.55;74.81
80290;SHT30;69592;44.804;-0.550;2023-08-30T08:23:03;20.60;75.95
80290;SHT30;69592;44.804;-0.550;2023-08-30T08:25:28;20.68;75.49
80290;SHT30;69592;44.804;-0.550;2023-08-30T08:27:54;20.84;75.21
80290;SHT30;69592;44.804;-0.550;2023-08-30T08:30:21;21.05;74.44
80290;SHT30;69592;44.804;-0.550;2023-08-30T08:32:46;21.05;73.37
80290;SHT30;69592;44.804;-0.550;2023-08-30T08:35:15;21.15;73.32
80290;SHT30;69592;44.804;-0.550;2023-08-30T08:37:41;21.26;72.78
80290;SHT30;69592;44.804;-0.550;2023-08-30T08:40:07;21.32;71.44
80290;SHT30;69592;44.804;-0.550;2023-08-30T08:42:39;21.32;71.60
80290;SHT30;69592;44.804;-0.550;2023-08-30T08:45:06;21.52;71.11
80290;SHT30;69592;44.804;-0.550;2023-08-30T08:47:32;21.66;70.03
80290;SHT30;69592;44.804;-0.550;2023-08-30T08:50:01;21.76;70.20
80290;SHT30;69592;44.804;-0.550;2023-08-30T08:52:29;21.87;70.75
80290;SHT30;69592;44.804;-0.550;2023-08-30T08:54:54;21.94;69.42
80290;SHT30;69592;44.804;-0.550;2023-08-30T08:57:21;21.97;69.86
80290;SHT30;69592;44.804;-0.550;2023-08-30T08:59:46;22.08;69.14
80290;SHT30;69592;44.804;-0.550;2023-08-30T09:02:13;22.30;69.11
80290;SHT30;69592;44.804;-0.550;2023-08-30T09:04:39;22.34;68.21
80290;SHT30;69592;44.804;-0.550;2023-08-30T09:07:08;22.41;68.11
80290;SHT30;69592;44.804;-0.550;2023-08-30T09:09:34;22.60;67.60
80290;SHT30;69592;44.804;-0.550;2023-08-30T09:11:59;22.79;68.05
80290;SHT30;69592;44.804;-0.550;2023-08-30T09:14:27;22.87;67.93
80290;SHT30;69592;44.804;-0.550;2023-08-30T09:17:00;22.81;68.09
80290;SHT30;69592;44.804;-0.550;2023-08-30T09:19:26;22.98;67.11
80290;SHT30;69592;44.804;-0.550;2023-08-30T09:21:54;23.09;67.06
80290;SHT30;69592;44.804;-0.550;2023-08-30T09:24:20;23.20;65.44
80290;SHT30;69592;44.804;-0.550;2023-08-30T09:26:52;23.42;64.88
80290;SHT30;69592;44.804;-0.550;2023-08-30T09:29:19;23.16;64.59
80290;SHT30;69592;44.804;-0.550;2023-08-30T09:31:45;23.13;64.65
80290;SHT30;69592;44.804;-0.550;2023-08-30T09:34:12;23.30;64.62
80290;SHT30;69592;44.804;-0.550;2023-08-30T09:36:39;23.19;63.92
80290;SHT30;69592;44.804;-0.550;2023-08-30T09:39:14;23.27;64.71
80290;SHT30;69592;44.804;-0.550;2023-08-30T09:41:44;23.36;65.18
80290;SHT30;69592;44.804;-0.550;2023-08-30T09:44:13;23.27;65.96
80290;SHT30;69592;44.804;-0.550;2023-08-30T09:46:50;23.16;65.86
80290;SHT30;69592;44.804;-0.550;2023-08-30T09:49:18;23.22;65.24
80290;SHT30;69592;44.804;-0.550;2023-08-30T09:51:46;23.30;65.65
80290;SHT30;69592;44.804;-0.550;2023-08-30T09:54:16;23.32;65.48
80290;SHT30;69592;44.804;-0.550;2023-08-30T09:56:43;23.36;65.35
80290;SHT30;69592;44.804;-0.550;2023-08-30T09:59:10;23.71;65.48
80290;SHT30;69592;44.804;-0.550;2023-08-30T10:01:36;24.08;62.72
80290;SHT30;69592;44.804;-0.550;2023-08-30T10:04:02;24.39;63.60
80290;SHT30;69592;44.804;-0.550;2023-08-30T10:06:30;24.18;63.05
80290;SHT30;69592;44.804;-0.550;2023-08-30T10:08:56;24.11;62.39
80290;SHT30;69592;44.804;-0.550;2023-08-30T10:11:23;23.96;62.27
80290;SHT30;69592;44.804;-0.550;2023-08-30T10:13:51;24.08;63.20
80290;SHT30;69592;44.804;-0.550;2023-08-30T10:16:19;24.41;62.73
80290;SHT30;69592;44.804;-0.550;2023-08-30T10:18:52;24.68;62.20
80290;SHT30;69592;44.804;-0.550;2023-08-30T10:21:20;24.29;61.79
80290;SHT30;69592;44.804;-0.550;2023-08-30T10:23:49;24.27;62.26
80290;SHT30;69592;44.804;-0.550;2023-08-30T10:26:17;24.17;62.98
80290;SHT30;69592;44.804;-0.550;2023-08-30T10:28:45;24.11;62.95
80290;SHT30;69592;44.804;-0.550;2023-08-30T10:31:13;24.17;62.69
80290;SHT30;69592;44.804;-0.550;2023-08-30T10:33:54;24.72;62.29
80290;SHT30;69592;44.804;-0.550;2023-08-30T10:36:23;24.75;62.17
80290;SHT30;69592;44.804;-0.550;2023-08-30T10:38:52;24.62;61.04
80290;SHT30;69592;44.804;-0.550;2023-08-30T10:41:26;24.92;61.86
80290;SHT30;69592;44.804;-0.550;2023-08-30T10:43:52;24.90;61.57
80290;SHT30;69592;44.804;-0.550;2023-08-30T10:46:35;25.06;62.74
80290;SHT30;69592;44.804;-0.550;2023-08-30T10:49:14;25.19;62.13
80290;SHT30;69592;44.804;-0.550;2023-08-30T10:51:41;25.27;61.17
80290;SHT30;69592;44.804;-0.550;2023-08-30T10:54:14;25.36;60.65
80290;SHT30;69592;44.804;-0.550;2023-08-30T10:56:57;25.50;61.36
80290;SHT30;69592;44.804;-0.550;2023-08-30T10:59:27;25.43;62.03
80290;SHT30;69592;44.804;-0.550;2023-08-30T11:01:53;25.75;59.32
80290;SHT30;69592;44.804;-0.550;2023-08-30T11:04:19;26.05;60.25
80290;SHT30;69592;44.804;-0.550;2023-08-30T11:06:55;25.66;58.84
80290;SHT30;69592;44.804;-0.550;2023-08-30T11:09:22;25.43;60.55
80290;SHT30;69592;44.804;-0.550;2023-08-30T11:11:49;25.22;60.57
80290;SHT30;69592;44.804;-0.550;2023-08-30T11:14:16;25.77;60.24
80290;SHT30;69592;44.804;-0.550;2023-08-30T11:16:42;25.94;60.07
80290;SHT30;69592;44.804;-0.550;2023-08-30T11:19:09;26.06;59.29
80290;SHT30;69592;44.804;-0.550;2023-08-30T11:21:37;26.06;60.09
80290;SHT30;69592;44.804;-0.550;2023-08-30T11:24:04;25.97;59.62
80290;SHT30;69592;44.804;-0.550;2023-08-30T11:26:30;25.66;59.01
80290;SHT30;69592;44.804;-0.550;2023-08-30T11:28:55;25.73;60.38
80290;SHT30;69592;44.804;-0.550;2023-08-30T11:31:22;25.67;60.09
80290;SHT30;69592;44.804;-0.550;2023-08-30T11:33:56;25.54;60.13
80290;SHT30;69592;44.804;-0.550;2023-08-30T11:36:23;25.26;60.55
80290;SHT30;69592;44.804;-0.550;2023-08-30T11:38:49;25.05;61.25
80290;SHT30;69592;44.804;-0.550;2023-08-30T11:41:15;24.99;61.45
80290;SHT30;69592;44.804;-0.550;2023-08-30T11:43:41;25.00;61.54
80290;SHT30;69592;44.804;-0.550;2023-08-30T11:46:10;24.90;61.52
80290;SHT30;69592;44.804;-0.550;2023-08-30T11:48:38;24.95;61.63
80290;SHT30;69592;44.804;-0.550;2023-08-30T11:51:04;24.99;61.86
80290;SHT30;69592;44.804;-0.550;2023-08-30T11:53:30;25.13;61.62
80290;SHT30;69592;44.804;-0.550;2023-08-30T11:55:56;25.13;61.36
80290;SHT30;69592;44.804;-0.550;2023-08-30T11:58:21;25.06;62.17
80290;SHT30;69592;44.804;-0.550;2023-08-30T12:00:50;25.20;61.33
80290;SHT30;69592;44.804;-0.550;2023-08-30T12:03:16;24.98;61.95
80290;SHT30;69592;44.804;-0.550;2023-08-30T12:05:51;25.16;61.98
80290;SHT30;69592;44.804;-0.550;2023-08-30T12:08:27;25.02;61.91
80290;SHT30;69592;44.804;-0.550;2023-08-30T12:10:54;24.79;63.03
80290;SHT30;69592;44.804;-0.550;2023-08-30T12:13:23;24.56;63.27
80290;SHT30;69592;44.804;-0.550;2023-08-30T12:15:50;24.76;63.56
80290;SHT30;69592;44.804;-0.550;2023-08-30T12:18:16;24.73;63.79
80290;SHT30;69592;44.804;-0.550;2023-08-30T12:21:03;24.56;64.54
80290;SHT30;69592;44.804;-0.550;2023-08-30T12:23:32;24.79;64.14
80290;SHT30;69592;44.804;-0.550;2023-08-30T12:26:05;25.39;63.33
80290;SHT30;69592;44.804;-0.550;2023-08-30T12:28:39;25.54;63.60
80290;SHT30;69592;44.804;-0.550;2023-08-30T12:31:04;24.92;65.55
80290;SHT30;69592;44.804;-0.550;2023-08-30T12:33:31;24.64;66.61
80290;SHT30;69592;44.804;-0.550;2023-08-30T12:35:57;24.85;66.50
80290;SHT30;69592;44.804;-0.550;2023-08-30T12:38:23;25.44;65.74
80290;SHT30;69592;44.804;-0.550;2023-08-30T12:40:50;25.29;65.05
80290;SHT30;69592;44.804;-0.550;2023-08-30T12:43:17;24.80;65.83
80290;SHT30;69592;44.804;-0.550;2023-08-30T12:45:43;25.37;64.25
80290;SHT30;69592;44.804;-0.550;2023-08-30T12:48:11;25.67;63.67
80290;SHT30;69592;44.804;-0.550;2023-08-30T12:50:37;26.04;62.78
80290;SHT30;69592;44.804;-0.550;2023-08-30T12:53:04;25.90;62.38
80290;SHT30;69592;44.804;-0.550;2023-08-30T12:55:29;25.73;62.40
80290;SHT30;69592;44.804;-0.550;2023-08-30T12:57:55;25.82;62.80
80290;SHT30;69592;44.804;-0.550;2023-08-30T13:00:20;25.88;62.89
80290;SHT30;69592;44.804;-0.550;2023-08-30T13:02:46;25.82;62.54
80290;SHT30;69592;44.804;-0.550;2023-08-30T13:05:11;24.98;66.20
80290;SHT30;69592;44.804;-0.550;2023-08-30T13:07:37;23.66;70.84
80290;SHT30;69592;44.804;-0.550;2023-08-30T13:10:03;22.91;72.88
80290;SHT30;69592;44.804;-0.550;2023-08-30T13:12:29;22.60;74.17
80290;SHT30;69592;44.804;-0.550;2023-08-30T13:14:54;23.09;73.22
80290;SHT30;69592;44.804;-0.550;2023-08-30T13:17:19;23.42;71.75
80290;SHT30;69592;44.804;-0.550;2023-08-30T13:19:45;23.39;71.42
80290;SHT30;69592;44.804;-0.550;2023-08-30T13:22:10;23.59;70.49
80290;SHT30;69592;44.804;-0.550;2023-08-30T13:24:39;23.60;71.18
80290;SHT30;69592;44.804;-0.550;2023-08-30T13:27:04;23.26;71.60
80290;SHT30;69592;44.804;-0.550;2023-08-30T13:29:30;23.60;70.59
80290;SHT30;69592;44.804;-0.550;2023-08-30T13:31:55;23.30;70.49
80290;SHT30;69592;44.804;-0.550;2023-08-30T13:34:21;23.39;70.54
80290;SHT30;69592;44.804;-0.550;2023-08-30T13:36:46;23.52;70.78
80290;SHT30;69592;44.804;-0.550;2023-08-30T13:39:11;23.59;70.13
80290;SHT30;69592;44.804;-0.550;2023-08-30T13:41:37;24.17;69.53
80290;SHT30;69592;44.804;-0.550;2023-08-30T13:44:03;23.93;70.07
80290;SHT30;69592;44.804;-0.550;2023-08-30T13:46:29;24.15;70.17
80290;SHT30;69592;44.804;-0.550;2023-08-30T13:48:55;23.67;71.03
80290;SHT30;69592;44.804;-0.550;2023-08-30T13:51:25;23.96;71.51
80290;SHT30;69592;44.804;-0.550;2023-08-30T13:53:51;24.17;70.55
80290;SHT30;69592;44.804;-0.550;2023-08-30T13:56:16;23.20;73.33
80290;SHT30;69592;44.804;-0.550;2023-08-30T13:58:42;23.36;72.56
80290;SHT30;69592;44.804;-0.550;2023-08-30T14:01:08;23.29;73.66
80290;SHT30;69592;44.804;-0.550;2023-08-30T14:03:33;23.22;74.65
80290;SHT30;69592;44.804;-0.550;2023-08-30T14:05:58;22.48;77.05
80290;SHT30;69592;44.804;-0.550;2023-08-30T14:08:24;22.08;79.42
80290;SHT30;69592;44.804;-0.550;2023-08-30T14:10:49;22.47;81.54
80290;SHT30;69592;44.804;-0.550;2023-08-30T14:13:15;23.09;80.50
80290;SHT30;69592;44.804;-0.550;2023-08-30T14:15:41;23.60;78.79
80290;SHT30;69592;44.804;-0.550;2023-08-30T14:18:07;23.81;78.29
80290;SHT30;69592;44.804;-0.550;2023-08-30T14:20:33;23.81;78.09
80290;SHT30;69592;44.804;-0.550;2023-08-30T14:22:58;23.50;78.07
80290;SHT30;69592;44.804;-0.550;2023-08-30T14:25:24;23.43;78.95
80290;SHT30;69592;44.804;-0.550;2023-08-30T14:27:49;23.27;79.13
80290;SHT30;69592;44.804;-0.550;2023-08-30T14:30:15;22.94;78.97
80290;SHT30;69592;44.804;-0.550;2023-08-30T14:32:40;22.79;79.22
80290;SHT30;69592;44.804;-0.550;2023-08-30T14:35:09;22.71;77.48
80290;SHT30;69592;44.804;-0.550;2023-08-30T14:37:34;22.51;79.02
80290;SHT30;69592;44.804;-0.550;2023-08-30T14:40:02;22.64;79.13
80290;SHT30;69592;44.804;-0.550;2023-08-30T14:42:29;22.96;76.92
80290;SHT30;69592;44.804;-0.550;2023-08-30T14:44:54;23.24;76.74
80290;SHT30;69592;44.804;-0.550;2023-08-30T14:47:20;23.40;75.37
80290;SHT30;69592;44.804;-0.550;2023-08-30T14:49:46;23.32;74.38
80290;SHT30;69592;44.804;-0.550;2023-08-30T14:52:15;23.42;73.87
80290;SHT30;69592;44.804;-0.550;2023-08-30T14:54:41;23.29;74.11
80290;SHT30;69592;44.804;-0.550;2023-08-30T14:57:07;23.46;74.00
80290;SHT30;69592;44.804;-0.550;2023-08-30T14:59:32;23.63;72.40
80290;SHT30;69592;44.804;-0.550;2023-08-30T15:01:58;23.84;72.57
80290;SHT30;69592;44.804;-0.550;2023-08-30T15:04:24;23.97;72.58
80290;SHT30;69592;44.804;-0.550;2023-08-30T15:06:49;23.80;74.09
80290;SHT30;69592;44.804;-0.550;2023-08-30T15:09:15;23.75;73.61
80290;SHT30;69592;44.804;-0.550;2023-08-30T15:11:42;23.75;74.02
80290;SHT30;69592;44.804;-0.550;2023-08-30T15:14:07;23.66;73.77
80290;SHT30;69592;44.804;-0.550;2023-08-30T15:16:32;23.26;73.88
80290;SHT30;69592;44.804;-0.550;2023-08-30T15:18:58;23.42;73.19
80290;SHT30;69592;44.804;-0.550;2023-08-30T15:21:23;23.27;72.38
80290;SHT30;69592;44.804;-0.550;2023-08-30T15:23:49;23.19;71.65
80290;SHT30;69592;44.804;-0.550;2023-08-30T15:26:14;22.84;68.90
80290;SHT30;69592;44.804;-0.550;2023-08-30T15:28:43;22.57;69.60
80290;SHT30;69592;44.804;-0.550;2023-08-30T15:31:09;22.60;70.08
80290;SHT30;69592;44.804;-0.550;2023-08-30T15:33:36;22.92;70.15
80290;SHT30;69592;44.804;-0.550;2023-08-30T15:36:01;23.24;69.70
80290;SHT30;69592;44.804;-0.550;2023-08-30T15:38:27;23.11;69.61
80290;SHT30;69592;44.804;-0.550;2023-08-30T15:40:53;23.05;68.75
80290;SHT30;69592;44.804;-0.550;2023-08-30T15:43:19;23.29;69.30
80290;SHT30;69592;44.804;-0.550;2023-08-30T15:45:45;23.46;69.14
80290;SHT30;69592;44.804;-0.550;2023-08-30T15:48:10;23.57;68.57
80290;SHT30;69592;44.804;-0.550;2023-08-30T15:50:39;23.19;68.93
80290;SHT30;69592;44.804;-0.550;2023-08-30T15:53:04;22.92;68.80
80290;SHT30;69592;44.804;-0.550;2023-08-30T15:55:30;22.84;68.28
80290;SHT30;69592;44.804;-0.550;2023-08-30T15:57:56;22.76;68.36
80290;SHT30;69592;44.804;-0.550;2023-08-30T16:00:22;22.89;66.93
80290;SHT30;69592;44.804;-0.550;2023-08-30T16:02:49;23.11;66.56
80290;SHT30;69592;44.804;-0.550;2023-08-30T16:05:16;22.91;65.90
80290;SHT30;69592;44.804;-0.550;2023-08-30T16:07:42;22.96;65.18
80290;SHT30;69592;44.804;-0.550;2023-08-30T16:10:08;23.11;65.07
80290;SHT30;69592;44.804;-0.550;2023-08-30T16:12:33;23.08;64.42
80290;SHT30;69592;44.804;-0.550;2023-08-30T16:14:59;23.11;64.89
80290;SHT30;69592;44.804;-0.550;2023-08-30T16:17:24;22.94;65.48
80290;SHT30;69592;44.804;-0.550;2023-08-30T16:19:49;22.81;66.02
80290;SHT30;69592;44.804;-0.550;2023-08-30T16:22:15;22.72;66.30
80290;SHT30;69592;44.804;-0.550;2023-08-30T16:24:40;22.73;66.74
80290;SHT30;69592;44.804;-0.550;2023-08-30T16:27:06;22.60;67.60
80290;SHT30;69592;44.804;-0.550;2023-08-30T16:29:31;22.68;67.82
80290;SHT30;69592;44.804;-0.550;2023-08-30T16:31:57;22.65;68.32
80290;SHT30;69592;44.804;-0.550;2023-08-30T16:34:25;22.48;69.10
80290;SHT30;69592;44.804;-0.550;2023-08-30T16:37:07;22.01;69.34
80290;SHT30;69592;44.804;-0.550;2023-08-30T16:39:32;21.89;69.77
80290;SHT30;69592;44.804;-0.550;2023-08-30T16:41:58;21.73;69.23
80290;SHT30;69592;44.804;-0.550;2023-08-30T16:44:23;21.60;69.52
80290;SHT30;69592;44.804;-0.550;2023-08-30T16:46:49;21.92;69.07
80290;SHT30;69592;44.804;-0.550;2023-08-30T16:49:14;22.11;68.10
80290;SHT30;69592;44.804;-0.550;2023-08-30T16:51:43;22.25;67.82
80290;SHT30;69592;44.804;-0.550;2023-08-30T16:54:08;22.20;67.11
80290;SHT30;69592;44.804;-0.550;2023-08-30T16:56:38;21.66;69.32
80290;SHT30;69592;44.804;-0.550;2023-08-30T16:59:03;21.46;69.71
80290;SHT30;69592;44.804;-0.550;2023-08-30T17:01:29;21.41;69.72
80290;SHT30;69592;44.804;-0.550;2023-08-30T17:03:54;21.52;69.98
80290;SHT30;69592;44.804;-0.550;2023-08-30T17:06:20;21.72;69.53
80290;SHT30;69592;44.804;-0.550;2023-08-30T17:08:47;21.69;69.59
80290;SHT30;69592;44.804;-0.550;2023-08-30T17:11:13;21.41;70.05
80290;SHT30;69592;44.804;-0.550;2023-08-30T17:13:38;21.26;70.83
80290;SHT30;69592;44.804;-0.550;2023-08-30T17:16:04;21.15;71.04
80290;SHT30;69592;44.804;-0.550;2023-08-30T17:18:34;21.19;71.11
80290;SHT30;69592;44.804;-0.550;2023-08-30T17:21:02;20.65;72.10
80290;SHT30;69592;44.804;-0.550;2023-08-30T17:23:28;20.51;71.38
80290;SHT30;69592;44.804;-0.550;2023-08-30T17:25:53;20.54;71.29
80290;SHT30;69592;44.804;-0.550;2023-08-30T17:28:26;20.45;71.37
80290;SHT30;69592;44.804;-0.550;2023-08-30T17:30:51;20.48;71.24
80290;SHT30;69592;44.804;-0.550;2023-08-30T17:33:16;20.39;71.36
80290;SHT30;69592;44.804;-0.550;2023-08-30T17:35:42;20.36;71.30
80290;SHT30;69592;44.804;-0.550;2023-08-30T17:38:07;20.40;71.30
80290;SHT30;69592;44.804;-0.550;2023-08-30T17:40:34;20.55;70.99
80290;SHT30;69592;44.804;-0.550;2023-08-30T17:43:00;20.61;70.95
80290;SHT30;69592;44.804;-0.550;2023-08-30T17:45:32;20.73;70.26
80290;SHT30;69592;44.804;-0.550;2023-08-30T17:48:00;20.77;70.06
80290;SHT30;69592;44.804;-0.550;2023-08-30T17:50:26;20.70;69.83
80290;SHT30;69592;44.804;-0.550;2023-08-30T17:52:52;20.71;69.86
80290;SHT30;69592;44.804;-0.550;2023-08-30T17:55:22;20.73;70.09
80290;SHT30;69592;44.804;-0.550;2023-08-30T17:57:48;20.80;69.60
80290;SHT30;69592;44.804;-0.550;2023-08-30T18:00:14;20.77;69.45
80290;SHT30;69592;44.804;-0.550;2023-08-30T18:02:47;20.87;69.02
80290;SHT30;69592;44.804;-0.550;2023-08-30T18:05:14;20.91;69.04
80290;SHT30;69592;44.804;-0.550;2023-08-30T18:07:39;20.87;68.43
80290;SHT30;69592;44.804;-0.550;2023-08-30T18:10:08;20.83;68.21
80290;SHT30;69592;44.804;-0.550;2023-08-30T18:12:34;20.75;68.17
80290;SHT30;69592;44.804;-0.550;2023-08-30T18:14:59;20.70;67.52
80290;SHT30;69592;44.804;-0.550;2023-08-30T18:17:28;20.60;67.39
80290;SHT30;69592;44.804;-0.550;2023-08-30T18:19:55;20.60;67.81
80290;SHT30;69592;44.804;-0.550;2023-08-30T18:22:21;20.54;67.37
80290;SHT30;69592;44.804;-0.550;2023-08-30T18:24:47;20.55;67.63
80290;SHT30;69592;44.804;-0.550;2023-08-30T18:27:13;20.54;67.36
80290;SHT30;69592;44.804;-0.550;2023-08-30T18:29:42;20.39;67.41
80290;SHT30;69592;44.804;-0.550;2023-08-30T18:32:10;20.43;67.96
80290;SHT30;69592;44.804;-0.550;2023-08-30T18:34:37;20.40;67.87
80290;SHT30;69592;44.804;-0.550;2023-08-30T18:37:04;20.36;68.11
80290;SHT30;69592;44.804;-0.550;2023-08-30T18:39:29;20.43;67.84
80290;SHT30;69592;44.804;-0.550;2023-08-30T18:41:59;20.23;68.30
80290;SHT30;69592;44.804;-0.550;2023-08-30T18:44:24;20.24;68.34
80290;SHT30;69592;44.804;-0.550;2023-08-30T18:46:50;20.29;68.05
80290;SHT30;69592;44.804;-0.550;2023-08-30T18:49:15;20.14;68.50
80290;SHT30;69592;44.804;-0.550;2023-08-30T18:51:41;19.92;68.99
80290;SHT30;69592;44.804;-0.550;2023-08-30T18:54:06;19.99;69.04
80290;SHT30;69592;44.804;-0.550;2023-08-30T18:56:33;19.80;69.33
80290;SHT30;69592;44.804;-0.550;2023-08-30T18:58:58;19.68;69.51
80290;SHT30;69592;44.804;-0.550;2023-08-30T19:01:24;19.63;69.33
80290;SHT30;69592;44.804;-0.550;2023-08-30T19:03:54;19.61;69.43
80290;SHT30;69592;44.804;-0.550;2023-08-30T19:06:19;19.57;69.80
80290;SHT30;69592;44.804;-0.550;2023-08-30T19:08:45;19.45;69.92
80290;SHT30;69592;44.804;-0.550;2023-08-30T19:11:10;19.49;70.16
80290;SHT30;69592;44.804;-0.550;2023-08-30T19:13:37;19.49;70.21
80290;SHT30;69592;44.804;-0.550;2023-08-30T19:16:04;19.49;70.25
80290;SHT30;69592;44.804;-0.550;2023-08-30T19:18:29;19.38;70.30
80290;SHT30;69592;44.804;-0.550;2023-08-30T19:20:56;19.38;70.50
80290;SHT30;69592;44.804;-0.550;2023-08-30T19:23:22;19.42;70.48
80290;SHT30;69592;44.804;-0.550;2023-08-30T19:25:51;19.42;70.36
80290;SHT30;69592;44.804;-0.550;2023-08-30T19:28:17;19.32;70.92
80290;SHT30;69592;44.804;-0.550;2023-08-30T19:30:43;19.35;71.10
80290;SHT30;69592;44.804;-0.550;2023-08-30T19:33:08;19.32;71.07
80290;SHT30;69592;44.804;-0.550;2023-08-30T19:35:34;19.38;71.06
80290;SHT30;69592;44.804;-0.550;2023-08-30T19:37:59;19.47;70.90
80290;SHT30;69592;44.804;-0.550;2023-08-30T19:40:25;19.45;70.87
80290;SHT30;69592;44.804;-0.550;2023-08-30T19:42:50;19.41;71.30
80290;SHT30;69592;44.804;-0.550;2023-08-30T19:45:17;19.41;71.06
80290;SHT30;69592;44.804;-0.550;2023-08-30T19:47:42;19.36;71.31
80290;SHT30;69592;44.804;-0.550;2023-08-30T19:50:08;19.29;71.45
80290;SHT30;69592;44.804;-0.550;2023-08-30T19:52:34;19.29;71.61
80290;SHT30;69592;44.804;-0.550;2023-08-30T19:54:59;19.25;71.69
80290;SHT30;69592;44.804;-0.550;2023-08-30T19:57:24;19.24;71.90
80290;SHT30;69592;44.804;-0.550;2023-08-30T19:59:50;19.25;72.31
80290;SHT30;69592;44.804;-0.550;2023-08-30T20:02:16;19.29;71.96
80290;SHT30;69592;44.804;-0.550;2023-08-30T20:04:42;19.27;71.92
80290;SHT30;69592;44.804;-0.550;2023-08-30T20:07:07;19.24;71.95
80290;SHT30;69592;44.804;-0.550;2023-08-30T20:09:34;19.22;72.14
80290;SHT30;69592;44.804;-0.550;2023-08-30T20:12:00;19.18;72.36
80290;SHT30;69592;44.804;-0.550;2023-08-30T20:14:26;19.14;72.47
80290;SHT30;69592;44.804;-0.550;2023-08-30T20:16:51;19.11;72.86
80290;SHT30;69592;44.804;-0.550;2023-08-30T20:19:17;19.12;73.00
80290;SHT30;69592;44.804;-0.550;2023-08-30T20:21:47;19.11;72.67
80290;SHT30;69592;44.804;-0.550;2023-08-30T20:24:13;19.08;72.89
80290;SHT30;69592;44.804;-0.550;2023-08-30T20:26:40;19.14;73.21
80290;SHT30;69592;44.804;-0.550;2023-08-30T20:29:07;19.12;73.28
80290;SHT30;69592;44.804;-0.550;2023-08-30T20:31:32;19.21;73.45
80290;SHT30;69592;44.804;-0.550;2023-08-30T20:33:59;19.19;73.39
80290;SHT30;69592;44.804;-0.550;2023-08-30T20:36:25;19.17;73.30
80290;SHT30;69592;44.804;-0.550;2023-08-30T20:38:50;19.18;73.35
80290;SHT30;69592;44.804;-0.550;2023-08-30T20:41:17;19.22;73.62
80290;SHT30;69592;44.804;-0.550;2023-08-30T20:43:42;19.24;73.70
80290;SHT30;69592;44.804;-0.550;2023-08-30T20:46:08;19.27;73.43
80290;SHT30;69592;44.804;-0.550;2023-08-30T20:48:39;19.28;73.71
80290;SHT30;69592;44.804;-0.550;2023-08-30T20:51:04;19.28;74.09
80290;SHT30;69592;44.804;-0.550;2023-08-30T20:53:36;19.28;73.71
80290;SHT30;69592;44.804;-0.550;2023-08-30T20:56:11;19.24;74.34
80290;SHT30;69592;44.804;-0.550;2023-08-30T20:58:40;19.27;74.75
80290;SHT30;69592;44.804;-0.550;2023-08-30T21:01:07;19.25;74.90
80290;SHT30;69592;44.804;-0.550;2023-08-30T21:03:32;19.27;74.55
80290;SHT30;69592;44.804;-0.550;2023-08-30T21:05:58;19.32;74.48
80290;SHT30;69592;44.804;-0.550;2023-08-30T21:08:24;19.15;74.50
80290;SHT30;69592;44.804;-0.550;2023-08-30T21:10:50;19.15;74.74
80290;SHT30;69592;44.804;-0.550;2023-08-30T21:13:15;19.08;75.32
80290;SHT30;69592;44.804;-0.550;2023-08-30T21:15:41;19.06;75.32
80290;SHT30;69592;44.804;-0.550;2023-08-30T21:18:07;19.06;75.61
80290;SHT30;69592;44.804;-0.550;2023-08-30T21:20:33;18.91;75.93